Dundas, Ohio
Current Conditions -  °F | °C
As of 3:35 AM on Sunday 23 Nov 2014 (Local Time) from KUNI Reporting Station
Broken Clouds Broken Clouds  
Wind Chill: 39°   Ceiling: 10000
Heat Index: 39°   Visibility: 10mi
Dew Point: 28°   Wind: 0mph
Humidity: 63%   Direction: NA
Pressure: 30.09"   Gusts: NA
Location:  39.1723°N, 82.4717°W
Report Text: KUNI 230835Z AUTO 00000KT 10SM BKN100 04/M02 A3009 RMK AO2 T00401024
Loading
Personal Weather Stations






























Interactive Weather Map New forecast layout! Learn more

10-Day Weather Forecast

Advertisements
Track Severe Weather on mobile